Souda — SVBH5 — position and weather

sailwx.info

Track history (hours):
 
Tides and Currents Weather Stations Pressure Air Temp Water Temp Dewpoint Dewpoint Depression Visibility Wind Speed Wind Dir Waves Ship Positions

Souda

Last reported at 2018-Jan-23 23:00 UTC. Time now 2018-Jan-23 23:16 UTC.
Position N 37°55' E 023°05'.

Length 88 m; draft 5.8 m.

Type: Tanker. MMSI: 241109000.

Date/timePositionNaut miles runAvg speedWind from/ knotsBaromVisibWave heightAir tempDewpointWater temp
2018-Jan-23 23:00N 37°55' E 023°05'0 0.0
2018-Jan-23 22:29N 37°55' E 023°05'0 0.0
2018-Jan-23 21:56N 37°55' E 023°05'0 0.0
2018-Jan-23 21:30N 37°55' E 023°05'0 0.0
2018-Jan-23 20:59N 37°55' E 023°05'0 0.0
2018-Jan-23 20:29N 37°55' E 023°05'0 0.0
2018-Jan-23 19:59N 37°55' E 023°05'0 0.0
2018-Jan-23 19:29N 37°55' E 023°05'0 0.0
2018-Jan-23 19:00N 37°55' E 023°05'0 0.0
2018-Jan-23 18:29N 37°55' E 023°05'0 0.0
2018-Jan-23 18:00N 37°55' E 023°05'0 0.0
2018-Jan-23 17:30N 37°55' E 023°05'0 0.0
2018-Jan-23 16:59N 37°55' E 023°05'0 0.0
2018-Jan-23 16:29N 37°55' E 023°05'0 0.0
2018-Jan-23 16:00N 37°55' E 023°05'0 0.0
2018-Jan-23 15:29N 37°55' E 023°05'0 0.0
2018-Jan-23 14:59N 37°55' E 023°05'0 0.0
2018-Jan-23 14:29N 37°55' E 023°05'0 0.0
2018-Jan-23 13:59N 37°55' E 023°05'0 0.0
2018-Jan-23 13:29N 37°55' E 023°05'0 0.0
2018-Jan-23 12:59N 37°55' E 023°05'0 0.0
2018-Jan-23 12:29N 37°55' E 023°05'0 0.0
2018-Jan-23 11:59N 37°55' E 023°05'0 0.0
2018-Jan-23 11:29N 37°55' E 023°05'0 0.0
2018-Jan-23 10:59N 37°55' E 023°05'0 0.0
2018-Jan-23 10:29N 37°55' E 023°05'0 0.0
2018-Jan-23 09:59N 37°55' E 023°05'0 0.0
2018-Jan-23 09:29N 37°55' E 023°05'0 0.0
2018-Jan-23 08:59N 37°55' E 023°05'0 0.0
2018-Jan-23 08:29N 37°55' E 023°05'0 0.0
2018-Jan-23 07:59N 37°55' E 023°05'0 0.0
2018-Jan-23 07:29N 37°55' E 023°05'0 0.0
2018-Jan-23 06:59N 37°55' E 023°05'0 0.0
2018-Jan-23 06:29N 37°55' E 023°05'0 0.0
2018-Jan-23 05:59N 37°55' E 023°05'0 0.0
2018-Jan-23 05:30N 37°55' E 023°05'0 0.5
2018-Jan-23 05:00N 37°55' E 023°06'0 0.5
2018-Jan-23 04:30N 37°55' E 023°06'0 0.2
2018-Jan-23 04:00N 37°55' E 023°06'0 0.0
2018-Jan-23 03:30N 37°55' E 023°06'0 0.0
2018-Jan-23 03:00N 37°55' E 023°06'0 0.0
2018-Jan-23 02:30N 37°55' E 023°06'0 0.0
2018-Jan-23 02:00N 37°55' E 023°06'0 0.0
2018-Jan-23 01:30N 37°55' E 023°06'0 0.1
2018-Jan-23 01:00N 37°55' E 023°06'0 0.1
2018-Jan-23 00:30N 37°55' E 023°06'0 0.0
2018-Jan-23 00:00N 37°55' E 023°06'0 0.0
2018-Jan-22 23:30N 37°55' E 023°06'0 0.0
2018-Jan-22 23:00N 37°55' E 023°06'0 0.0
2018-Jan-22 22:30N 37°55' E 023°06'0 0.0
2018-Jan-22 22:00N 37°55' E 023°06'0 0.0
2018-Jan-22 21:30N 37°55' E 023°06'0 0.0
2018-Jan-22 21:00N 37°55' E 023°06'0 0.0
2018-Jan-22 20:30N 37°55' E 023°06'0 0.0
2018-Jan-22 20:00N 37°55' E 023°06'0 0.0
2018-Jan-22 19:30N 37°55' E 023°06'0 0.0
2018-Jan-22 19:00N 37°55' E 023°06'0 0.0
2018-Jan-22 18:30N 37°55' E 023°06'0 0.0
2018-Jan-22 18:00N 37°55' E 023°06'0 0.1
2018-Jan-22 17:30N 37°55' E 023°06'0 0.0
2018-Jan-22 17:00N 37°55' E 023°06'0 0.8
2018-Jan-22 16:31N 37°55' E 023°06'4 7.8
2018-Jan-22 16:01N 37°53' E 023°11'4 8.2
2018-Jan-22 15:30N 37°52' E 023°16'4 7.9
2018-Jan-22 15:00N 37°51' E 023°21'4 7.5
2018-Jan-22 14:30N 37°50' E 023°25'4 7.7
2018-Jan-22 14:00N 37°50' E 023°30'4 7.6
2018-Jan-22 13:31N 37°50' E 023°35'3 6.9
2018-Jan-22 13:00N 37°50' E 023°39'4 7.3
2018-Jan-22 12:30N 37°47' E 023°42'4 7.0
2018-Jan-22 12:00N 37°44' E 023°44'3 7.0
2018-Jan-22 11:30N 37°41' E 023°46'19 7.7
2018-Jan-22 09:01N 37°39' E 024°10'7 9.4
2018-Jan-22 08:18N 37°44' E 024°16'10 9.2
2018-Jan-22 07:11N 37°50' E 024°26'2 9.3
2018-Jan-22 07:01N 37°52' E 024°28'7 9.4
2018-Jan-22 06:15N 37°57' E 024°34'131 8.4
2018-Jan-21 14:35N 40°08' E 024°29'1 9.2
2018-Jan-21 14:29N 40°09' E 024°29'4 9.1
2018-Jan-21 14:00N 40°13' E 024°28'4 8.9
2018-Jan-21 13:30N 40°17' E 024°27'5 9.1
2018-Jan-21 13:00N 40°22' E 024°26'5 9.0
2018-Jan-21 12:30N 40°27' E 024°25'6 8.7
2018-Jan-21 11:48N 40°33' E 024°25'3 8.9
2018-Jan-21 11:29N 40°35' E 024°25'4 9.0
2018-Jan-21 11:00N 40°40' E 024°25'5 9.2
2018-Jan-21 10:30N 40°44' E 024°25'5 9.3
2018-Jan-21 10:00N 40°49' E 024°27'5 9.3
2018-Jan-21 09:30N 40°53' E 024°29'4 8.7
2018-Jan-21 09:00N 40°57' E 024°32'1 1.3
2018-Jan-21 08:30N 40°57' E 024°33'0 0.0
2018-Jan-21 08:00N 40°57' E 024°33'0 0.0
2018-Jan-21 07:28N 40°57' E 024°33'0 0.0
2018-Jan-21 06:55N 40°57' E 024°33'0 0.0
2018-Jan-21 06:28N 40°57' E 024°33'0 0.0
2018-Jan-21 05:58N 40°57' E 024°33'0 0.0
2018-Jan-21 05:25N 40°57' E 024°33'0 0.0
2018-Jan-21 04:55N 40°57' E 024°33'0 0.0
2018-Jan-21 04:28N 40°57' E 024°33'0 0.0
2018-Jan-21 03:55N 40°57' E 024°33'0 0.0
2018-Jan-21 03:28N 40°57' E 024°33'0 0.0
2018-Jan-21 02:58N 40°57' E 024°33'0 0.0
2018-Jan-21 02:28N 40°57' E 024°33'0 0.0
2018-Jan-21 01:55N 40°57' E 024°33'0 0.0
2018-Jan-21 01:25N 40°57' E 024°33'0 0.0
2018-Jan-21 00:52N 40°57' E 024°33'0 0.0
2018-Jan-21 00:25N 40°57' E 024°33'0 0.0
2018-Jan-20 23:55N 40°57' E 024°33'0 0.0
2018-Jan-20 23:25N 40°57' E 024°33'0 0.0
2018-Jan-20 22:55N 40°57' E 024°33'0 0.0
2018-Jan-20 22:25N 40°57' E 024°33'0 0.0
2018-Jan-20 21:55N 40°57' E 024°33'0 0.0
2018-Jan-20 21:25N 40°57' E 024°33'0 0.0
2018-Jan-20 20:55N 40°57' E 024°33'0 0.0
2018-Jan-20 20:25N 40°57' E 024°33'0 0.0
2018-Jan-20 19:58N 40°57' E 024°33'0 0.0
2018-Jan-20 19:25N 40°57' E 024°33'0 0.0
2018-Jan-20 18:55N 40°57' E 024°33'0 0.0
2018-Jan-20 18:25N 40°57' E 024°33'0 0.0
2018-Jan-20 17:55N 40°57' E 024°33'0 0.0
2018-Jan-20 17:28N 40°57' E 024°33'0 0.0
2018-Jan-20 16:58N 40°57' E 024°33'0 0.0
2018-Jan-20 16:28N 40°57' E 024°33'0 0.0
2018-Jan-20 15:58N 40°57' E 024°33'0 0.0
2018-Jan-20 15:28N 40°57' E 024°33'0 0.0
2018-Jan-20 14:58N 40°57' E 024°33'0 0.0
2018-Jan-20 14:28N 40°57' E 024°33'0 0.0
2018-Jan-20 13:58N 40°57' E 024°33'0 0.0
2018-Jan-20 13:28N 40°57' E 024°33'0 0.0
2018-Jan-20 12:58N 40°57' E 024°33'0 0.0
2018-Jan-20 12:28N 40°57' E 024°33'0 0.0
2018-Jan-20 11:58N 40°57' E 024°33'0 0.0
2018-Jan-20 11:28N 40°57' E 024°33'0 0.0
2018-Jan-20 10:58N 40°57' E 024°33'0 0.0
2018-Jan-20 10:28N 40°57' E 024°33'0 0.0
2018-Jan-20 09:58N 40°57' E 024°33'0 0.0
2018-Jan-20 09:28N 40°57' E 024°33'0 0.0
2018-Jan-20 08:55N 40°57' E 024°33'0 0.0
2018-Jan-20 08:28N 40°57' E 024°33'0 0.0
2018-Jan-20 07:58N 40°57' E 024°33'0 0.0
2018-Jan-20 07:28N 40°57' E 024°33'0 0.2
2018-Jan-20 06:58N 40°57' E 024°33'1 2.9
2018-Jan-20 06:31N 40°57' E 024°31'2 3.6
2018-Jan-20 06:00N 40°56' E 024°29'0 0.0
2018-Jan-20 05:30N 40°56' E 024°29'0 0.0
2018-Jan-20 05:00N 40°56' E 024°29'0 0.0
2018-Jan-20 04:30N 40°56' E 024°29'0 0.2
2018-Jan-20 04:00N 40°56' E 024°29'3 6.4
2018-Jan-20 03:30N 40°53' E 024°29'4 7.3
2018-Jan-20 03:00N 40°49' E 024°27'4 7.4
2018-Jan-20 02:30N 40°46' E 024°26'4 7.5
2018-Jan-20 02:00N 40°42' E 024°24'4 7.6
2018-Jan-20 01:30N 40°38' E 024°25'4 7.5
2018-Jan-20 00:59N 40°34' E 024°26'4 7.6
2018-Jan-20 00:30N 40°31' E 024°27'4 7.5
2018-Jan-20 00:00N 40°27' E 024°28'4 7.6
2018-Jan-19 23:30N 40°23' E 024°29'5 7.8
2018-Jan-19 22:55N 40°19' E 024°29'3 7.9
2018-Jan-19 22:30N 40°16' E 024°30'4 7.7
2018-Jan-19 21:59N 40°12' E 024°30'136 7.5
2018-Jan-19 03:52N 37°56' E 024°32'  
Track history (hours):
 
Tides and Currents Weather Stations Pressure Air Temp Water Temp Dewpoint Dewpoint Depression Visibility Wind Speed Wind Dir Waves Ship Positions

Souda

Last reported at 2018-Jan-23 23:00 UTC. Time now 2018-Jan-23 23:16 UTC.
Position N 37°55' E 023°05'.

Length 88 m; draft 5.8 m.

Type: Tanker. MMSI: 241109000.

Date/timePositionNaut miles runAvg speedWind from/ knotsBaromVisibWave heightAir tempDewpointWater temp
2018-Jan-23 23:00N 37°55' E 023°05'0 0.0
2018-Jan-23 22:29N 37°55' E 023°05'0 0.0
2018-Jan-23 21:56N 37°55' E 023°05'0 0.0
2018-Jan-23 21:30N 37°55' E 023°05'0 0.0
2018-Jan-23 20:59N 37°55' E 023°05'0 0.0
2018-Jan-23 20:29N 37°55' E 023°05'0 0.0
2018-Jan-23 19:59N 37°55' E 023°05'0 0.0
2018-Jan-23 19:29N 37°55' E 023°05'0 0.0
2018-Jan-23 19:00N 37°55' E 023°05'0 0.0
2018-Jan-23 18:29N 37°55' E 023°05'0 0.0
2018-Jan-23 18:00N 37°55' E 023°05'0 0.0
2018-Jan-23 17:30N 37°55' E 023°05'0 0.0
2018-Jan-23 16:59N 37°55' E 023°05'0 0.0
2018-Jan-23 16:29N 37°55' E 023°05'0 0.0
2018-Jan-23 16:00N 37°55' E 023°05'0 0.0
2018-Jan-23 15:29N 37°55' E 023°05'0 0.0
2018-Jan-23 14:59N 37°55' E 023°05'0 0.0
2018-Jan-23 14:29N 37°55' E 023°05'0 0.0
2018-Jan-23 13:59N 37°55' E 023°05'0 0.0
2018-Jan-23 13:29N 37°55' E 023°05'0 0.0
2018-Jan-23 12:59N 37°55' E 023°05'0 0.0
2018-Jan-23 12:29N 37°55' E 023°05'0 0.0
2018-Jan-23 11:59N 37°55' E 023°05'0 0.0
2018-Jan-23 11:29N 37°55' E 023°05'0 0.0
2018-Jan-23 10:59N 37°55' E 023°05'0 0.0
2018-Jan-23 10:29N 37°55' E 023°05'0 0.0
2018-Jan-23 09:59N 37°55' E 023°05'0 0.0
2018-Jan-23 09:29N 37°55' E 023°05'0 0.0
2018-Jan-23 08:59N 37°55' E 023°05'0 0.0
2018-Jan-23 08:29N 37°55' E 023°05'0 0.0
2018-Jan-23 07:59N 37°55' E 023°05'0 0.0
2018-Jan-23 07:29N 37°55' E 023°05'0 0.0
2018-Jan-23 06:59N 37°55' E 023°05'0 0.0
2018-Jan-23 06:29N 37°55' E 023°05'0 0.0
2018-Jan-23 05:59N 37°55' E 023°05'0 0.0
2018-Jan-23 05:30N 37°55' E 023°05'0 0.5
2018-Jan-23 05:00N 37°55' E 023°06'0 0.5
2018-Jan-23 04:30N 37°55' E 023°06'0 0.2
2018-Jan-23 04:00N 37°55' E 023°06'0 0.0
2018-Jan-23 03:30N 37°55' E 023°06'0 0.0
2018-Jan-23 03:00N 37°55' E 023°06'0 0.0
2018-Jan-23 02:30N 37°55' E 023°06'0 0.0
2018-Jan-23 02:00N 37°55' E 023°06'0 0.0
2018-Jan-23 01:30N 37°55' E 023°06'0 0.1
2018-Jan-23 01:00N 37°55' E 023°06'0 0.1
2018-Jan-23 00:30N 37°55' E 023°06'0 0.0
2018-Jan-23 00:00N 37°55' E 023°06'0 0.0
2018-Jan-22 23:30N 37°55' E 023°06'0 0.0
2018-Jan-22 23:00N 37°55' E 023°06'0 0.0
2018-Jan-22 22:30N 37°55' E 023°06'0 0.0
2018-Jan-22 22:00N 37°55' E 023°06'0 0.0
2018-Jan-22 21:30N 37°55' E 023°06'0 0.0
2018-Jan-22 21:00N 37°55' E 023°06'0 0.0
2018-Jan-22 20:30N 37°55' E 023°06'0 0.0
2018-Jan-22 20:00N 37°55' E 023°06'0 0.0
2018-Jan-22 19:30N 37°55' E 023°06'0 0.0
2018-Jan-22 19:00N 37°55' E 023°06'0 0.0
2018-Jan-22 18:30N 37°55' E 023°06'0 0.0
2018-Jan-22 18:00N 37°55' E 023°06'0 0.1
2018-Jan-22 17:30N 37°55' E 023°06'0 0.0
2018-Jan-22 17:00N 37°55' E 023°06'0 0.8
2018-Jan-22 16:31N 37°55' E 023°06'4 7.8
2018-Jan-22 16:01N 37°53' E 023°11'4 8.2
2018-Jan-22 15:30N 37°52' E 023°16'4 7.9
2018-Jan-22 15:00N 37°51' E 023°21'4 7.5
2018-Jan-22 14:30N 37°50' E 023°25'4 7.7
2018-Jan-22 14:00N 37°50' E 023°30'4 7.6
2018-Jan-22 13:31N 37°50' E 023°35'3 6.9
2018-Jan-22 13:00N 37°50' E 023°39'4 7.3
2018-Jan-22 12:30N 37°47' E 023°42'4 7.0
2018-Jan-22 12:00N 37°44' E 023°44'3 7.0
2018-Jan-22 11:30N 37°41' E 023°46'19 7.7
2018-Jan-22 09:01N 37°39' E 024°10'7 9.4
2018-Jan-22 08:18N 37°44' E 024°16'10 9.2
2018-Jan-22 07:11N 37°50' E 024°26'2 9.3
2018-Jan-22 07:01N 37°52' E 024°28'7 9.4
2018-Jan-22 06:15N 37°57' E 024°34'131 8.4
2018-Jan-21 14:35N 40°08' E 024°29'1 9.2
2018-Jan-21 14:29N 40°09' E 024°29'4 9.1
2018-Jan-21 14:00N 40°13' E 024°28'4 8.9
2018-Jan-21 13:30N 40°17' E 024°27'5 9.1
2018-Jan-21 13:00N 40°22' E 024°26'5 9.0
2018-Jan-21 12:30N 40°27' E 024°25'6 8.7
2018-Jan-21 11:48N 40°33' E 024°25'3 8.9
2018-Jan-21 11:29N 40°35' E 024°25'4 9.0
2018-Jan-21 11:00N 40°40' E 024°25'5 9.2
2018-Jan-21 10:30N 40°44' E 024°25'5 9.3
2018-Jan-21 10:00N 40°49' E 024°27'5 9.3
2018-Jan-21 09:30N 40°53' E 024°29'4 8.7
2018-Jan-21 09:00N 40°57' E 024°32'1 1.3
2018-Jan-21 08:30N 40°57' E 024°33'0 0.0
2018-Jan-21 08:00N 40°57' E 024°33'0 0.0
2018-Jan-21 07:28N 40°57' E 024°33'0 0.0
2018-Jan-21 06:55N 40°57' E 024°33'0 0.0
2018-Jan-21 06:28N 40°57' E 024°33'0 0.0
2018-Jan-21 05:58N 40°57' E 024°33'0 0.0
2018-Jan-21 05:25N 40°57' E 024°33'0 0.0
2018-Jan-21 04:55N 40°57' E 024°33'0 0.0
2018-Jan-21 04:28N 40°57' E 024°33'0 0.0
2018-Jan-21 03:55N 40°57' E 024°33'0 0.0
2018-Jan-21 03:28N 40°57' E 024°33'0 0.0
2018-Jan-21 02:58N 40°57' E 024°33'0 0.0
2018-Jan-21 02:28N 40°57' E 024°33'0 0.0
2018-Jan-21 01:55N 40°57' E 024°33'0 0.0
2018-Jan-21 01:25N 40°57' E 024°33'0 0.0
2018-Jan-21 00:52N 40°57' E 024°33'0 0.0
2018-Jan-21 00:25N 40°57' E 024°33'0 0.0
2018-Jan-20 23:55N 40°57' E 024°33'0 0.0
2018-Jan-20 23:25N 40°57' E 024°33'0 0.0
2018-Jan-20 22:55N 40°57' E 024°33'0 0.0
2018-Jan-20 22:25N 40°57' E 024°33'0 0.0
2018-Jan-20 21:55N 40°57' E 024°33'0 0.0
2018-Jan-20 21:25N 40°57' E 024°33'0 0.0
2018-Jan-20 20:55N 40°57' E 024°33'0 0.0
2018-Jan-20 20:25N 40°57' E 024°33'0 0.0
2018-Jan-20 19:58N 40°57' E 024°33'0 0.0
2018-Jan-20 19:25N 40°57' E 024°33'0 0.0
2018-Jan-20 18:55N 40°57' E 024°33'0 0.0
2018-Jan-20 18:25N 40°57' E 024°33'0 0.0
2018-Jan-20 17:55N 40°57' E 024°33'0 0.0
2018-Jan-20 17:28N 40°57' E 024°33'0 0.0
2018-Jan-20 16:58N 40°57' E 024°33'0 0.0
2018-Jan-20 16:28N 40°57' E 024°33'0 0.0
2018-Jan-20 15:58N 40°57' E 024°33'0 0.0
2018-Jan-20 15:28N 40°57' E 024°33'0 0.0
2018-Jan-20 14:58N 40°57' E 024°33'0 0.0
2018-Jan-20 14:28N 40°57' E 024°33'0 0.0
2018-Jan-20 13:58N 40°57' E 024°33'0 0.0
2018-Jan-20 13:28N 40°57' E 024°33'0 0.0
2018-Jan-20 12:58N 40°57' E 024°33'0 0.0
2018-Jan-20 12:28N 40°57' E 024°33'0 0.0
2018-Jan-20 11:58N 40°57' E 024°33'0 0.0
2018-Jan-20 11:28N 40°57' E 024°33'0 0.0
2018-Jan-20 10:58N 40°57' E 024°33'0 0.0
2018-Jan-20 10:28N 40°57' E 024°33'0 0.0
2018-Jan-20 09:58N 40°57' E 024°33'0 0.0
2018-Jan-20 09:28N 40°57' E 024°33'0 0.0
2018-Jan-20 08:55N 40°57' E 024°33'0 0.0
2018-Jan-20 08:28N 40°57' E 024°33'0 0.0
2018-Jan-20 07:58N 40°57' E 024°33'0 0.0
2018-Jan-20 07:28N 40°57' E 024°33'0 0.2
2018-Jan-20 06:58N 40°57' E 024°33'1 2.9
2018-Jan-20 06:31N 40°57' E 024°31'2 3.6
2018-Jan-20 06:00N 40°56' E 024°29'0 0.0
2018-Jan-20 05:30N 40°56' E 024°29'0 0.0
2018-Jan-20 05:00N 40°56' E 024°29'0 0.0
2018-Jan-20 04:30N 40°56' E 024°29'0 0.2
2018-Jan-20 04:00N 40°56' E 024°29'3 6.4
2018-Jan-20 03:30N 40°53' E 024°29'4 7.3
2018-Jan-20 03:00N 40°49' E 024°27'4 7.4
2018-Jan-20 02:30N 40°46' E 024°26'4 7.5
2018-Jan-20 02:00N 40°42' E 024°24'4 7.6
2018-Jan-20 01:30N 40°38' E 024°25'4 7.5
2018-Jan-20 00:59N 40°34' E 024°26'4 7.6
2018-Jan-20 00:30N 40°31' E 024°27'4 7.5
2018-Jan-20 00:00N 40°27' E 024°28'4 7.6
2018-Jan-19 23:30N 40°23' E 024°29'5 7.8
2018-Jan-19 22:55N 40°19' E 024°29'3 7.9
2018-Jan-19 22:30N 40°16' E 024°30'4 7.7
2018-Jan-19 21:59N 40°12' E 024°30'136 7.5
2018-Jan-19 03:52N 37°56' E 024°32'  

Dump ship's entire track history